createdAt,value
2022-11-02T00:02:00.036Z,12.60
2022-11-02T00:04:27.522Z,12.50
2022-11-02T00:06:54.977Z,12.50
2022-11-02T00:09:22.343Z,12.50
2022-11-02T00:11:50.204Z,12.50
2022-11-02T00:14:17.570Z,12.50
2022-11-02T00:16:44.989Z,12.60
2022-11-02T00:19:12.574Z,12.60
2022-11-02T00:21:41.196Z,12.60
2022-11-02T00:24:10.958Z,12.70
2022-11-02T00:26:39.007Z,12.60
2022-11-02T00:29:07.116Z,12.40
2022-11-02T00:31:34.522Z,12.30
2022-11-02T00:34:01.934Z,12.10
2022-11-02T00:36:29.511Z,12.10
2022-11-02T00:38:57.327Z,12.10
2022-11-02T00:41:25.246Z,12.00
2022-11-02T00:43:54.201Z,11.90
2022-11-02T00:46:22.667Z,11.90
2022-11-02T00:48:52.100Z,11.90
2022-11-02T00:51:20.050Z,11.80
2022-11-02T00:53:47.550Z,11.80
2022-11-02T00:56:15.915Z,11.80
2022-11-02T00:58:44.918Z,11.90
2022-11-02T01:01:14.019Z,11.90
2022-11-02T01:03:42.397Z,11.90
2022-11-02T01:06:15.753Z,12.00
2022-11-02T01:08:44.429Z,12.00
2022-11-02T01:11:13.797Z,12.00
2022-11-02T01:13:42.792Z,12.00
2022-11-02T01:16:11.560Z,12.00
2022-11-02T01:18:40.182Z,12.00
2022-11-02T01:21:09.487Z,12.10
2022-11-02T01:23:38.676Z,12.00
2022-11-02T01:26:09.362Z,12.00
2022-11-02T01:28:39.303Z,12.00
2022-11-02T01:31:10.264Z,12.00
2022-11-02T01:33:38.440Z,12.00
2022-11-02T01:36:07.325Z,12.00
2022-11-02T01:38:35.240Z,12.00
2022-11-02T01:41:02.824Z,12.00
2022-11-02T01:43:38.029Z,12.00
2022-11-02T01:46:19.089Z,12.00
2022-11-02T01:49:03.751Z,12.10
2022-11-02T01:51:46.924Z,12.00
2022-11-02T01:54:22.635Z,12.00
2022-11-02T01:56:56.851Z,11.90
2022-11-02T01:59:52.697Z,11.80
2022-11-02T02:02:24.880Z,11.80
2022-11-02T02:04:59.685Z,11.80
2022-11-02T02:07:30.625Z,11.80
2022-11-02T02:09:59.503Z,11.70
2022-11-02T02:12:29.447Z,11.80
2022-11-02T02:14:57.565Z,11.70
2022-11-02T02:17:25.347Z,11.70
2022-11-02T02:20:18.297Z,11.60
2022-11-02T02:23:27.477Z,11.60
2022-11-02T02:26:21.277Z,11.50
2022-11-02T02:28:56.223Z,11.40
2022-11-02T02:31:37.380Z,11.30
2022-11-02T02:34:18.120Z,11.30
2022-11-02T02:37:17.612Z,11.20
2022-11-02T02:40:16.359Z,11.20
2022-11-02T02:43:07.875Z,11.20
2022-11-02T02:45:52.918Z,11.10
2022-11-02T02:48:22.743Z,11.20
2022-11-02T02:50:53.683Z,11.20
2022-11-02T02:53:34.704Z,11.20
2022-11-02T02:56:05.721Z,11.20
2022-11-02T02:58:42.615Z,11.10
2022-11-02T03:01:14.627Z,11.10
2022-11-02T03:03:44.628Z,11.00
2022-11-02T03:06:27.875Z,11.00
2022-11-02T03:09:13.309Z,10.90
2022-11-02T03:11:56.832Z,10.80
2022-11-02T03:14:43.336Z,10.80
2022-11-02T03:17:19.156Z,10.90
2022-11-02T03:20:03.171Z,10.90
2022-11-02T03:22:49.048Z,10.90
2022-11-02T03:25:30.167Z,10.90
2022-11-02T03:28:11.115Z,10.80
2022-11-02T03:30:55.887Z,10.80
2022-11-02T03:33:33.713Z,10.90
2022-11-02T03:36:11.779Z,10.90
2022-11-02T03:38:53.075Z,10.80
2022-11-02T03:41:24.261Z,10.90
2022-11-02T03:43:57.625Z,10.90
2022-11-02T03:46:30.570Z,10.70
2022-11-02T03:49:07.562Z,10.70
2022-11-02T03:51:43.785Z,10.60
2022-11-02T03:54:22.499Z,10.50
2022-11-02T03:56:56.427Z,10.50
2022-11-02T03:59:24.448Z,10.40
2022-11-02T04:01:53.358Z,10.50
2022-11-02T04:04:24.211Z,10.40
2022-11-02T04:06:53.768Z,10.30
2022-11-02T04:09:21.567Z,10.50
2022-11-02T04:12:09.068Z,10.50
2022-11-02T04:14:40.049Z,10.40
2022-11-02T04:20:10.271Z,10.40
2022-11-02T04:22:56.817Z,10.40
2022-11-02T04:25:24.661Z,10.40
2022-11-02T04:28:08.583Z,10.50
2022-11-02T04:30:41.511Z,10.50
2022-11-02T04:33:27.582Z,10.50
2022-11-02T04:36:06.292Z,10.50
2022-11-02T04:38:40.355Z,10.50
2022-11-02T04:41:33.160Z,10.60
2022-11-02T04:44:01.185Z,10.50
2022-11-02T04:46:31.203Z,10.50
2022-11-02T04:48:59.683Z,10.50
2022-11-02T04:51:28.841Z,10.40
2022-11-02T04:53:57.782Z,10.40
2022-11-02T04:56:27.171Z,10.40
2022-11-02T04:58:58.547Z,10.40
2022-11-02T05:01:29.343Z,10.40
2022-11-02T05:03:57.771Z,10.40
2022-11-02T05:06:27.351Z,10.40
2022-11-02T05:08:56.223Z,10.30
2022-11-02T05:11:24.782Z,10.20
2022-11-02T05:13:52.971Z,10.30
2022-11-02T05:16:20.550Z,10.30
2022-11-02T05:18:50.763Z,10.30
2022-11-02T05:21:19.902Z,10.30
2022-11-02T05:23:49.148Z,10.30
2022-11-02T05:26:16.827Z,10.20
2022-11-02T05:28:47.456Z,10.20
2022-11-02T05:31:20.672Z,10.20
2022-11-02T05:33:49.888Z,10.20
2022-11-02T05:36:21.814Z,10.30
2022-11-02T05:38:58.279Z,10.30
2022-11-02T05:41:27.969Z,10.30
2022-11-02T05:43:57.089Z,10.20
2022-11-02T05:46:26.647Z,10.20
2022-11-02T05:48:54.049Z,10.30
2022-11-02T05:51:21.405Z,10.30
2022-11-02T05:53:48.917Z,10.10
2022-11-02T05:56:20.689Z,10.10
2022-11-02T06:01:24.823Z,9.90
2022-11-02T06:03:53.785Z,9.90
2022-11-02T06:06:21.472Z,10.00
2022-11-02T06:08:48.837Z,10.10
2022-11-02T06:11:16.585Z,10.00
2022-11-02T06:13:44.076Z,10.00
2022-11-02T06:16:12.559Z,10.00
2022-11-02T06:18:40.021Z,10.00
2022-11-02T06:21:07.783Z,10.10
2022-11-02T06:23:35.478Z,10.10
2022-11-02T06:26:03.745Z,10.10
2022-11-02T06:28:31.826Z,10.20
2022-11-02T06:30:59.383Z,10.30
2022-11-02T06:33:30.917Z,10.30
2022-11-02T06:35:58.387Z,10.30
2022-11-02T06:38:26.023Z,10.50
2022-11-02T06:40:55.096Z,10.40
2022-11-02T06:43:23.277Z,10.50
2022-11-02T06:45:53.729Z,10.60
2022-11-02T06:48:21.168Z,10.80
2022-11-02T06:50:48.551Z,10.90
2022-11-02T06:53:16.290Z,10.90
2022-11-02T06:55:44.109Z,10.90
2022-11-02T06:58:11.547Z,11.00
2022-11-02T07:00:38.991Z,11.00
2022-11-02T07:03:09.724Z,11.10
2022-11-02T07:05:37.697Z,11.10
2022-11-02T07:08:05.488Z,11.10
2022-11-02T07:10:35.592Z,11.30
2022-11-02T07:13:03.691Z,11.30
2022-11-02T07:15:31.447Z,11.50
2022-11-02T07:17:58.882Z,11.60
2022-11-02T07:20:26.326Z,11.70
2022-11-02T07:22:55.951Z,11.80
2022-11-02T07:25:24.253Z,11.80
2022-11-02T07:27:51.684Z,11.90
2022-11-02T07:30:19.412Z,12.00
2022-11-02T07:32:47.169Z,12.10
2022-11-02T07:35:16.020Z,12.30
2022-11-02T07:37:43.681Z,12.40
2022-11-02T07:40:14.224Z,13.10
2022-11-02T07:42:46.553Z,14.20
2022-11-02T07:45:16.671Z,15.30
2022-11-02T07:47:45.231Z,16.00
2022-11-02T07:50:14.133Z,16.60
2022-11-02T07:52:48.887Z,17.20
2022-11-02T07:55:18.979Z,17.90
2022-11-02T07:58:08.071Z,18.60
2022-11-02T08:00:37.933Z,19.20
2022-11-02T08:03:07.735Z,19.40
2022-11-02T08:05:37.776Z,20.00
2022-11-02T08:08:06.657Z,20.60
2022-11-02T08:10:37.410Z,21.50
2022-11-02T08:13:09.215Z,22.20
2022-11-02T08:15:37.503Z,22.60
2022-11-02T08:18:16.836Z,22.40
2022-11-02T08:20:45.957Z,22.30
2022-11-02T08:23:14.913Z,22.40
2022-11-02T08:25:43.330Z,23.20
2022-11-02T08:28:13.832Z,23.60
2022-11-02T08:30:41.280Z,23.40
2022-11-02T08:33:13.399Z,23.40
2022-11-02T08:35:43.459Z,23.70
2022-11-02T08:38:11.651Z,23.90
2022-11-02T08:40:39.501Z,23.70
2022-11-02T08:43:12.883Z,23.80
2022-11-02T08:46:13.264Z,24.00
2022-11-02T08:48:30.295Z,23.70
2022-11-02T08:51:00.819Z,23.60
2022-11-02T08:53:28.410Z,24.20
2022-11-02T08:55:58.751Z,24.20
2022-11-02T08:58:26.525Z,23.20
2022-11-02T09:00:54.506Z,22.20
2022-11-02T09:03:26.767Z,21.50
2022-11-02T09:06:01.996Z,20.80
2022-11-02T09:08:30.283Z,20.40
2022-11-02T09:11:00.724Z,20.90
2022-11-02T09:13:28.930Z,21.90
2022-11-02T09:15:58.623Z,22.40
2022-11-02T09:18:26.463Z,22.20
2022-11-02T09:20:54.109Z,21.70
2022-11-02T09:23:22.502Z,21.10
2022-11-02T09:25:50.486Z,20.20
2022-11-02T09:28:18.096Z,19.80
2022-11-02T09:30:45.755Z,19.60
2022-11-02T09:33:13.704Z,19.30
2022-11-02T09:35:43.902Z,19.00
2022-11-02T09:38:11.982Z,18.50
2022-11-02T09:40:43.518Z,18.30
2022-11-02T09:43:17.229Z,17.90
2022-11-02T09:45:53.492Z,17.60
2022-11-02T09:48:29.191Z,17.60
2022-11-02T09:51:09.893Z,17.40
2022-11-02T09:53:44.995Z,17.20
2022-11-02T09:56:16.399Z,16.80
2022-11-02T09:58:48.473Z,16.80
2022-11-02T10:01:28.992Z,16.80
2022-11-02T10:04:24.630Z,16.60
2022-11-02T10:07:16.972Z,16.50
2022-11-02T10:09:47.111Z,16.30
2022-11-02T10:12:30.746Z,16.10
2022-11-02T10:15:20.692Z,15.90
2022-11-02T10:17:53.957Z,15.90
2022-11-02T10:20:39.020Z,15.90
2022-11-02T10:23:09.370Z,16.10
2022-11-02T10:25:38.220Z,16.20
2022-11-02T10:28:14.448Z,16.30
2022-11-02T10:30:44.022Z,16.40
2022-11-02T10:33:17.545Z,16.30
2022-11-02T10:36:23.428Z,16.30
2022-11-02T10:39:00.657Z,16.30
2022-11-02T10:41:52.291Z,16.30
2022-11-02T10:44:34.656Z,16.40
2022-11-02T10:47:04.928Z,16.60
2022-11-02T10:49:54.897Z,16.70
2022-11-02T10:52:22.508Z,17.00
2022-11-02T10:54:53.301Z,17.00
2022-11-02T10:57:24.387Z,17.00
2022-11-02T11:00:29.345Z,17.20
2022-11-02T11:03:07.456Z,17.20
2022-11-02T11:05:38.242Z,17.10
2022-11-02T11:08:06.336Z,17.20
2022-11-02T11:10:38.220Z,17.30
2022-11-02T11:13:07.769Z,17.40
2022-11-02T11:15:51.454Z,17.50
2022-11-02T11:21:09.206Z,17.50
2022-11-02T11:23:36.566Z,17.60
2022-11-02T11:26:08.424Z,17.50
2022-11-02T11:28:52.233Z,17.50
2022-11-02T11:31:20.281Z,17.50
2022-11-02T11:33:58.537Z,17.40
2022-11-02T11:36:36.478Z,17.20
2022-11-02T11:39:29.545Z,17.10
2022-11-02T11:41:58.171Z,17.10
2022-11-02T11:44:26.812Z,17.30
2022-11-02T11:46:59.189Z,17.20
2022-11-02T11:52:31.240Z,17.10
2022-11-02T11:55:02.604Z,17.00
2022-11-02T11:57:32.557Z,17.10
2022-11-02T12:00:04.984Z,17.10
2022-11-02T12:02:40.977Z,17.10
2022-11-02T12:05:17.250Z,17.30
2022-11-02T12:07:59.559Z,17.30
2022-11-02T12:10:45.527Z,17.30
2022-11-02T12:13:35.873Z,17.30
2022-11-02T12:16:23.639Z,17.30
2022-11-02T12:19:31.222Z,17.20
2022-11-02T12:22:38.624Z,17.20
2022-11-02T12:25:30.147Z,17.10
2022-11-02T12:28:23.181Z,17.10
2022-11-02T12:31:05.143Z,17.10
2022-11-02T12:33:41.386Z,17.10
2022-11-02T12:36:33.957Z,16.90
2022-11-02T12:39:42.759Z,16.80
2022-11-02T12:42:27.717Z,16.80
2022-11-02T12:45:19.720Z,16.80
2022-11-02T12:47:55.601Z,16.80
2022-11-02T12:50:41.513Z,16.70
2022-11-02T12:53:17.515Z,16.60
2022-11-02T12:55:49.114Z,16.70
2022-11-02T12:58:28.709Z,16.70
2022-11-02T13:01:02.682Z,16.80
2022-11-02T13:03:58.756Z,16.90
2022-11-02T13:06:39.349Z,17.00
2022-11-02T13:09:47.675Z,17.10
2022-11-02T13:12:24.353Z,17.00
2022-11-02T13:14:55.487Z,16.90
2022-11-02T13:17:28.835Z,16.90
2022-11-02T13:20:00.899Z,16.70
2022-11-02T13:22:34.118Z,16.70
2022-11-02T13:25:15.140Z,16.60
2022-11-02T13:28:07.582Z,16.60
2022-11-02T13:30:35.316Z,16.60
2022-11-02T13:33:11.452Z,16.60
2022-11-02T13:35:43.525Z,16.50
2022-11-02T13:38:22.939Z,16.30
2022-11-02T13:41:10.551Z,16.20
2022-11-02T13:43:56.742Z,16.10
2022-11-02T13:46:30.937Z,16.10
2022-11-02T13:49:23.812Z,16.10
2022-11-02T13:51:59.551Z,16.10
2022-11-02T13:54:33.849Z,16.00
2022-11-02T13:57:01.919Z,15.90
2022-11-02T13:59:42.197Z,15.90
2022-11-02T14:02:17.673Z,15.90
2022-11-02T14:04:46.138Z,15.90
2022-11-02T14:07:34.488Z,15.80
2022-11-02T14:10:16.774Z,15.70
2022-11-02T14:12:49.000Z,15.70
2022-11-02T14:15:16.364Z,15.60
2022-11-02T14:18:04.839Z,15.70
2022-11-02T14:20:49.284Z,15.70
2022-11-02T14:23:25.743Z,15.70
2022-11-02T14:26:00.441Z,15.60
2022-11-02T14:28:32.869Z,15.70
2022-11-02T14:31:22.830Z,15.60
2022-11-02T14:34:08.941Z,15.70
2022-11-02T14:37:07.893Z,15.70
2022-11-02T14:40:06.085Z,15.70
2022-11-02T14:42:51.518Z,15.60
2022-11-02T14:45:45.385Z,15.60
2022-11-02T14:48:16.885Z,15.70
2022-11-02T14:51:00.793Z,15.70
2022-11-02T14:53:31.761Z,15.80
2022-11-02T14:55:59.215Z,15.80
2022-11-02T14:58:40.249Z,15.80
2022-11-02T15:01:14.465Z,15.80
2022-11-02T15:03:43.125Z,15.80
2022-11-02T15:06:28.233Z,15.80
2022-11-02T15:09:01.030Z,15.80
2022-11-02T15:12:02.595Z,15.80
2022-11-02T15:14:36.105Z,15.70
2022-11-02T15:17:26.303Z,15.60
2022-11-02T15:20:16.589Z,15.60
2022-11-02T15:22:55.178Z,15.60
2022-11-02T15:25:31.785Z,15.50
2022-11-02T15:28:14.523Z,15.40
2022-11-02T15:30:49.063Z,15.40
2022-11-02T15:33:39.212Z,15.40
2022-11-02T15:36:15.616Z,15.40
2022-11-02T15:38:48.509Z,15.40
2022-11-02T15:41:35.617Z,15.30
2022-11-02T15:44:08.836Z,15.30
2022-11-02T15:46:57.897Z,15.40
2022-11-02T15:50:02.685Z,15.30
2022-11-02T15:52:35.960Z,15.30
2022-11-02T15:55:24.282Z,15.30
2022-11-02T15:58:00.462Z,15.20
2022-11-02T16:00:30.777Z,15.20
2022-11-02T16:03:04.804Z,15.10
2022-11-02T16:05:38.362Z,15.10
2022-11-02T16:08:22.959Z,15.10
2022-11-02T16:11:02.658Z,15.10
2022-11-02T16:13:48.674Z,15.10
2022-11-02T16:16:22.329Z,15.10
2022-11-02T16:18:52.319Z,15.10
2022-11-02T16:21:24.334Z,15.00
2022-11-02T16:23:56.003Z,14.90
2022-11-02T16:26:29.734Z,14.80
2022-11-02T16:28:59.827Z,14.70
2022-11-02T16:31:32.056Z,14.70
2022-11-02T16:34:03.656Z,14.70
2022-11-02T16:36:35.658Z,14.70
2022-11-02T16:39:36.447Z,14.70
2022-11-02T16:42:21.883Z,14.70
2022-11-02T16:44:58.452Z,14.60
2022-11-02T16:47:38.554Z,14.60
2022-11-02T16:50:23.007Z,14.70
2022-11-02T16:52:55.181Z,14.60
2022-11-02T16:55:44.381Z,14.60
2022-11-02T16:58:23.630Z,14.60
2022-11-02T17:01:03.371Z,14.60
2022-11-02T17:03:32.452Z,14.60
2022-11-02T17:06:04.253Z,14.50
2022-11-02T17:08:36.016Z,14.50
2022-11-02T17:11:05.603Z,14.50
2022-11-02T17:13:38.201Z,14.60
2022-11-02T17:16:10.563Z,14.60
2022-11-02T17:18:37.914Z,14.60
2022-11-02T17:21:14.136Z,14.60
2022-11-02T17:23:46.222Z,14.60
2022-11-02T17:26:22.746Z,14.60
2022-11-02T17:28:53.083Z,14.60
2022-11-02T17:31:27.503Z,14.60
2022-11-02T17:33:56.715Z,14.70
2022-11-02T17:36:26.912Z,14.70
2022-11-02T17:38:55.686Z,14.70
2022-11-02T17:41:55.599Z,14.80
2022-11-02T17:44:23.857Z,14.80
2022-11-02T17:46:51.561Z,14.80
2022-11-02T17:49:19.034Z,14.80
2022-11-02T17:51:47.489Z,14.80
2022-11-02T17:54:15.339Z,14.80
2022-11-02T17:56:42.688Z,14.70
2022-11-02T17:59:10.480Z,14.60
2022-11-02T18:01:38.127Z,14.50
2022-11-02T18:04:05.785Z,14.50
2022-11-02T18:06:33.253Z,14.50
2022-11-02T18:09:14.432Z,14.40
2022-11-02T18:11:41.917Z,14.30
2022-11-02T18:14:14.513Z,14.30
2022-11-02T18:16:42.109Z,14.40
2022-11-02T18:19:09.567Z,14.30
2022-11-02T18:21:36.951Z,14.30
2022-11-02T18:24:04.433Z,14.40
2022-11-02T18:26:31.825Z,14.30
2022-11-02T18:28:59.213Z,14.30
2022-11-02T18:31:26.637Z,14.30
2022-11-02T18:33:54.085Z,14.30
2022-11-02T18:36:21.539Z,14.30
2022-11-02T18:38:48.968Z,14.30
2022-11-02T18:41:29.723Z,14.30
2022-11-02T18:44:15.156Z,14.30
2022-11-02T18:46:43.926Z,14.30
2022-11-02T18:49:11.414Z,14.30
2022-11-02T18:51:43.061Z,14.20
2022-11-02T18:54:10.829Z,14.20
2022-11-02T18:56:38.365Z,14.20
2022-11-02T18:59:05.840Z,14.20
2022-11-02T19:01:33.552Z,14.20
2022-11-02T19:04:01.673Z,14.20
2022-11-02T19:06:49.601Z,14.10
2022-11-02T19:09:21.247Z,14.10
2022-11-02T19:11:51.707Z,14.10
2022-11-02T19:14:20.609Z,14.10
2022-11-02T19:16:48.094Z,14.10
2022-11-02T19:19:15.657Z,14.10
2022-11-02T19:21:43.202Z,14.10
2022-11-02T19:24:10.838Z,14.20
2022-11-02T19:26:38.848Z,14.20
2022-11-02T19:29:06.909Z,14.20
2022-11-02T19:31:35.486Z,14.30
2022-11-02T19:34:03.216Z,14.30
2022-11-02T19:36:31.503Z,14.30
2022-11-02T19:39:00.200Z,14.30
2022-11-02T19:41:27.671Z,14.30
2022-11-02T19:43:55.352Z,14.40
2022-11-02T19:46:23.242Z,14.30
2022-11-02T19:48:50.997Z,14.30
2022-11-02T19:51:20.857Z,14.30
2022-11-02T19:53:51.150Z,14.30
2022-11-02T19:56:19.896Z,14.30
2022-11-02T19:58:49.543Z,14.30
2022-11-02T20:01:21.123Z,14.30
2022-11-02T20:03:49.328Z,14.30
2022-11-02T20:06:20.380Z,14.30
2022-11-02T20:08:54.945Z,14.30
2022-11-02T20:11:24.667Z,14.40
2022-11-02T20:13:52.147Z,14.40
2022-11-02T20:16:20.259Z,14.30
2022-11-02T20:18:49.785Z,14.40
2022-11-02T20:21:23.045Z,14.40
2022-11-02T20:23:52.483Z,14.40
2022-11-02T20:26:22.261Z,14.40
2022-11-02T20:28:50.543Z,14.40
2022-11-02T20:31:26.456Z,14.40
2022-11-02T20:33:53.908Z,14.40
2022-11-02T20:36:21.752Z,14.40
2022-11-02T20:38:51.896Z,14.50
2022-11-02T20:41:21.370Z,14.60
2022-11-02T20:43:50.208Z,14.50
2022-11-02T20:46:36.965Z,14.50
2022-11-02T20:49:19.819Z,14.50
2022-11-02T20:51:53.174Z,14.50
2022-11-02T20:54:22.253Z,14.40
2022-11-02T20:56:50.312Z,14.40
2022-11-02T20:59:18.229Z,14.40
2022-11-02T21:01:46.063Z,14.40
2022-11-02T21:04:19.781Z,14.40
2022-11-02T21:06:51.639Z,14.40
2022-11-02T21:09:19.726Z,14.40
2022-11-02T21:12:05.668Z,14.40
2022-11-02T21:14:33.047Z,14.40
2022-11-02T21:17:02.677Z,14.50
2022-11-02T21:19:30.161Z,14.50
2022-11-02T21:21:59.935Z,14.50
2022-11-02T21:24:28.880Z,14.50
2022-11-02T21:26:56.552Z,14.50
2022-11-02T21:29:24.205Z,14.50
2022-11-02T21:31:51.603Z,14.60
2022-11-02T21:34:19.017Z,14.50
2022-11-02T21:36:47.548Z,14.60
2022-11-02T21:39:15.094Z,14.60
2022-11-02T21:41:42.693Z,14.60
2022-11-02T21:44:11.625Z,14.50
2022-11-02T21:46:39.073Z,14.60
2022-11-02T21:49:06.601Z,14.50
2022-11-02T21:51:34.833Z,14.50
2022-11-02T21:54:02.238Z,14.60
2022-11-02T21:56:31.794Z,14.50
2022-11-02T21:58:59.265Z,14.50
2022-11-02T22:01:44.334Z,14.50
2022-11-02T22:04:29.024Z,14.50
2022-11-02T22:06:57.084Z,14.50
2022-11-02T22:09:25.223Z,14.50
2022-11-02T22:12:11.552Z,14.60
2022-11-02T22:14:39.619Z,14.60
2022-11-02T22:17:16.567Z,14.60
2022-11-02T22:19:55.708Z,14.60
2022-11-02T22:22:23.928Z,14.60
2022-11-02T22:24:51.310Z,14.70
2022-11-02T22:27:18.687Z,14.70
2022-11-02T22:29:46.106Z,14.70
2022-11-02T22:32:14.659Z,14.70
2022-11-02T22:34:43.707Z,14.70
2022-11-02T22:37:29.865Z,14.70
2022-11-02T22:39:57.229Z,14.70
2022-11-02T22:42:24.633Z,14.70
2022-11-02T22:44:55.048Z,14.70
2022-11-02T22:47:22.476Z,14.70
2022-11-02T22:49:49.960Z,14.70
2022-11-02T22:52:17.340Z,14.70
2022-11-02T22:54:44.747Z,14.70
2022-11-02T22:57:12.160Z,14.70
2022-11-02T22:59:39.523Z,14.80
2022-11-02T23:02:06.909Z,14.80
2022-11-02T23:04:34.358Z,14.80
2022-11-02T23:07:01.701Z,14.70
2022-11-02T23:09:29.067Z,14.80
2022-11-02T23:11:56.420Z,14.70
2022-11-02T23:14:23.774Z,14.70
2022-11-02T23:16:51.133Z,14.70
2022-11-02T23:19:27.873Z,14.80
2022-11-02T23:22:20.208Z,14.70
2022-11-02T23:25:11.925Z,14.80
2022-11-02T23:28:01.011Z,14.80
2022-11-02T23:30:52.825Z,14.70
2022-11-02T23:33:22.655Z,14.80
2022-11-02T23:36:08.782Z,14.90
2022-11-02T23:38:54.574Z,14.90
2022-11-02T23:41:22.028Z,14.90
2022-11-02T23:43:49.455Z,14.90
2022-11-02T23:46:17.799Z,14.80
2022-11-02T23:48:48.253Z,14.90
2022-11-02T23:51:37.152Z,14.90
2022-11-02T23:54:23.136Z,14.90
2022-11-02T23:56:50.531Z,14.90
2022-11-02T23:59:18.570Z,14.80
